Time;durP1;ratioP1;P1;durP2;ratioP2;P2;SDS_P1;SDS_P2;PMS_P1;PMS_P2;Temp;Humidity;BMP_temperature;BMP_pressure;BME280_temperature;BME280_humidity;BME280_pressure;Samples;Min_cycle;Max_cycle;Signal;HPM_P1;HPM_P2
2023/07/12 00:00:25;;;;;;;9.98;4.95;;;;;;;-148.88;98.99;-17125.47;5033646;28;20369;-84
2023/07/12 00:02:50;;;;;;;8.15;4.90;;;;;;;-148.88;97.76;-17125.47;5016799;28;20032;-84
2023/07/12 00:05:16;;;;;;;10.88;5.30;;;;;;;-148.88;96.69;-17125.47;5033370;28;20013;-85
2023/07/12 00:07:45;;;;;;;9.85;5.10;;;;;;;-148.88;96.96;-17125.47;5015851;28;20487;-84
2023/07/12 00:10:34;;;;;;;8.60;4.90;;;;;;;-148.88;97.51;-17125.47;5033530;28;20025;-84
2023/07/12 00:12:59;;;;;;;9.30;4.90;;;;;;;-148.88;99.50;-17125.47;5033164;28;20108;-85
2023/07/12 00:15:34;;;;;;;7.78;4.72;;;;;;;-148.88;100.00;-17125.47;5037090;28;20057;-84
2023/07/12 00:17:59;;;;;;;7.80;5.25;;;;;;;-148.88;100.00;-17125.47;5035277;28;20029;-84
2023/07/12 00:20:33;;;;;;;8.48;5.15;;;;;;;-148.88;100.00;-17125.47;5016343;28;20029;-84
2023/07/12 00:22:59;;;;;;;7.60;4.68;;;;;;;-148.88;100.00;-17125.47;5035228;28;20104;-84
2023/07/12 00:25:28;;;;;;;9.95;5.05;;;;;;;-148.88;100.00;-17125.47;5016659;28;20148;-84
2023/07/12 00:27:54;;;;;;;9.95;5.63;;;;;;;-148.88;100.00;-17125.47;5034491;28;20075;-84
2023/07/12 00:30:39;;;;;;;9.43;6.10;;;;;;;-148.88;100.00;-17125.47;5016224;28;20021;-84
2023/07/12 00:33:04;;;;;;;8.98;6.00;;;;;;;-148.88;100.00;-17125.47;5015878;28;20505;-84
2023/07/12 00:35:32;;;;;;;10.75;5.90;;;;;;;-148.88;100.00;-17125.47;5034152;28;20511;-84
2023/07/12 00:37:59;;;;;;;10.15;6.20;;;;;;;-148.88;100.00;-17125.47;5017124;28;20029;-84
2023/07/12 00:40:40;;;;;;;8.93;6.72;;;;;;;-148.88;100.00;-17125.47;5016615;28;20029;-83
2023/07/12 00:43:16;;;;;;;10.82;5.82;;;;;;;-148.88;100.00;-17125.47;5034269;28;20025;-83
2023/07/12 00:45:44;;;;;;;15.00;5.88;;;;;;;-148.88;100.00;-17125.47;5016923;28;20051;-84
2023/07/12 00:48:12;;;;;;;10.40;5.68;;;;;;;-148.88;100.00;-17125.47;5017063;28;20032;-84
2023/07/12 00:50:38;;;;;;;11.00;5.60;;;;;;;-148.88;100.00;-17125.47;5020312;28;20083;-83
2023/07/12 00:53:03;;;;;;;10.95;5.28;;;;;;;-148.88;100.00;-17125.47;5036955;28;20018;-84
2023/07/12 00:56:01;;;;;;;9.90;4.75;;;;;;;-148.88;100.00;-17125.47;5019263;28;20017;-85
2023/07/12 00:58:38;;;;;;;9.13;4.78;;;;;;;-148.88;100.00;-17125.47;5022637;28;20025;-84
2023/07/12 01:01:05;;;;;;;7.43;4.85;;;;;;;-148.88;100.00;-17125.47;5021214;28;20021;-84
2023/07/12 01:03:35;;;;;;;6.97;3.97;;;;;;;-148.88;100.00;-17125.47;5019973;28;20079;-84
2023/07/12 01:06:01;;;;;;;9.38;3.80;;;;;;;-148.88;100.00;-17125.47;5020706;28;20071;-84
2023/07/12 01:08:29;;;;;;;6.88;3.67;;;;;;;-148.88;100.00;-17125.47;5019993;28;20026;-84
2023/07/12 01:10:56;;;;;;;5.78;3.22;;;;;;;-148.88;100.00;-17125.47;5019738;28;20423;-84
2023/07/12 01:13:22;;;;;;;6.10;3.08;;;;;;;-148.88;100.00;-17125.47;5037137;28;20104;-84
2023/07/12 01:15:48;;;;;;;6.15;3.42;;;;;;;-148.88;100.00;-17125.47;5019980;28;20021;-84
2023/07/12 01:18:13;;;;;;;5.70;2.78;;;;;;;-148.88;100.00;-17125.47;5020011;28;20025;-83
2023/07/12 01:20:40;;;;;;;4.07;2.70;;;;;;;-148.88;100.00;-17125.47;5020738;28;20029;-83
2023/07/12 01:23:06;;;;;;;4.15;2.70;;;;;;;-148.88;100.00;-17125.47;5038551;23;20041;-75
2023/07/12 01:25:38;;;;;;;4.30;2.40;;;;;;;-148.88;100.00;-17125.47;5036194;28;20392;-74
2023/07/12 01:28:04;;;;;;;4.18;1.85;;;;;;;-148.88;100.00;-17125.47;5018495;28;20025;-74
2023/07/12 01:30:29;;;;;;;6.10;2.10;;;;;;;-148.88;100.00;-17125.47;5036059;28;20400;-74
2023/07/12 01:32:55;;;;;;;3.47;2.08;;;;;;;-148.88;100.00;-17125.47;5036064;28;20427;-74
2023/07/12 01:35:21;;;;;;;3.83;2.30;;;;;;;-148.88;100.00;-17125.47;5036307;28;20053;-74
2023/07/12 01:37:46;;;;;;;3.30;2.10;;;;;;;-148.88;100.00;-17125.47;5036264;28;20026;-74
2023/07/12 01:40:12;;;;;;;3.55;1.95;;;;;;;-148.88;100.00;-17125.47;5035882;28;20036;-74
2023/07/12 01:42:37;;;;;;;5.03;2.10;;;;;;;-148.88;100.00;-17125.47;5035833;28;20083;-74
2023/07/12 01:45:03;;;;;;;4.13;1.90;;;;;;;-148.88;100.00;-17125.47;5035843;28;20057;-74
2023/07/12 01:47:30;;;;;;;5.28;2.20;;;;;;;-148.88;100.00;-17125.47;5035832;28;20037;-74
2023/07/12 01:49:55;;;;;;;3.78;2.03;;;;;;;-148.88;100.00;-17125.47;5035981;28;20032;-74
2023/07/12 01:52:21;;;;;;;4.38;2.28;;;;;;;-148.88;100.00;-17125.47;5035769;28;20021;-74
2023/07/12 01:54:46;;;;;;;3.22;1.70;;;;;;;-148.88;100.00;-17125.47;5035560;28;20495;-74
2023/07/12 01:57:11;;;;;;;3.83;1.65;;;;;;;-148.88;100.00;-17125.47;5035597;28;20506;-74
2023/07/12 01:59:37;;;;;;;2.42;1.23;;;;;;;-148.88;100.00;-17125.47;5035463;28;20057;-74
2023/07/12 02:02:02;;;;;;;3.42;1.83;;;;;;;-148.88;100.00;-17125.47;5035848;28;20036;-74
2023/07/12 02:04:27;;;;;;;4.32;1.70;;;;;;;-148.88;100.00;-17125.47;5017764;28;20021;-74
2023/07/12 02:06:53;;;;;;;3.58;1.88;;;;;;;-148.88;100.00;-17125.47;5035499;28;20021;-74
2023/07/12 02:09:18;;;;;;;4.00;1.60;;;;;;;-148.88;100.00;-17125.47;5035454;28;20029;-74
2023/07/12 02:11:44;;;;;;;2.55;1.63;;;;;;;-148.88;100.00;-17125.47;5035768;28;20156;-74
2023/07/12 02:14:09;;;;;;;2.50;1.70;;;;;;;-148.88;100.00;-17125.47;5035253;28;20507;-74
2023/07/12 02:16:34;;;;;;;3.00;1.60;;;;;;;-148.88;100.00;-17125.47;5017536;28;20057;-74
2023/07/12 02:19:00;;;;;;;3.08;1.65;;;;;;;-148.88;100.00;-17125.47;5035649;28;20534;-74
2023/07/12 02:21:25;;;;;;;2.33;1.58;;;;;;;-148.88;100.00;-17125.47;5035262;28;20484;-74
2023/07/12 02:23:52;;;;;;;2.90;1.60;;;;;;;-148.88;100.00;-17125.47;5035061;28;20029;-74
2023/07/12 02:26:18;;;;;;;4.72;1.80;;;;;;;-148.88;100.00;-17125.47;5035266;28;20108;-74
2023/07/12 02:28:43;;;;;;;4.05;1.70;;;;;;;-148.88;100.00;-17125.47;5035467;28;20498;-74
2023/07/12 02:31:15;;;;;;;3.80;1.88;;;;;;;-148.88;100.00;-17125.47;5035013;28;20025;-74
2023/07/12 02:33:40;;;;;;;3.47;1.70;;;;;;;-148.88;100.00;-17125.47;5034898;28;20021;-74
2023/07/12 02:36:05;;;;;;;2.50;1.65;;;;;;;-148.88;100.00;-17125.47;5034971;28;20403;-74
2023/07/12 02:38:31;;;;;;;2.85;1.65;;;;;;;-148.88;100.00;-17125.47;5035077;28;20064;-74
2023/07/12 02:40:56;;;;;;;3.92;1.75;;;;;;;-148.88;100.00;-17125.47;5034747;28;20037;-74
2023/07/12 02:43:21;;;;;;;3.83;2.20;;;;;;;-148.88;100.00;-17125.47;5034690;28;20017;-74
2023/07/12 02:45:48;;;;;;;3.13;1.60;;;;;;;-148.88;100.00;-17125.47;5035288;28;20112;-74
2023/07/12 02:48:13;;;;;;;3.63;1.60;;;;;;;-148.88;100.00;-17125.47;5035077;28;20495;-74
2023/07/12 02:50:38;;;;;;;3.65;2.00;;;;;;;-148.88;100.00;-17125.47;5035008;28;20029;-74
2023/07/12 02:53:14;;;;;;;3.22;1.80;;;;;;;-148.88;100.00;-17125.47;5035339;28;20025;-75
2023/07/12 02:55:39;;;;;;;3.25;1.70;;;;;;;-148.88;100.00;-17125.47;5034934;28;20082;-74
2023/07/12 02:58:04;;;;;;;3.63;1.63;;;;;;;-148.88;100.00;-17125.47;5034757;28;20583;-74
2023/07/12 03:00:30;;;;;;;3.70;1.50;;;;;;;-148.88;100.00;-17125.47;5034701;28;20018;-74
2023/07/12 03:02:55;;;;;;;5.30;1.80;;;;;;;-148.88;100.00;-17125.47;5034303;28;20477;-74
2023/07/12 03:05:22;;;;;;;2.70;1.52;;;;;;;-148.88;100.00;-17125.47;5034424;28;20030;-74
2023/07/12 03:07:47;;;;;;;3.88;1.80;;;;;;;-148.88;100.00;-17125.47;5034390;28;20075;-74
2023/07/12 03:10:13;;;;;;;3.25;1.50;;;;;;;-148.88;100.00;-17125.47;5034482;28;20025;-74
2023/07/12 03:12:38;;;;;;;3.00;1.70;;;;;;;-148.88;100.00;-17125.47;5033482;28;20078;-74
2023/07/12 03:15:04;;;;;;;4.60;1.90;;;;;;;-148.88;100.00;-17125.47;5034126;28;20022;-74
2023/07/12 03:17:29;;;;;;;3.80;2.08;;;;;;;-148.88;100.00;-17125.47;5033974;28;20033;-74
2023/07/12 03:19:54;;;;;;;2.85;1.60;;;;;;;-148.88;100.00;-17125.47;5034023;28;20076;-74
2023/07/12 03:22:20;;;;;;;3.72;1.83;;;;;;;-148.88;100.00;-17125.47;5033756;28;20040;-74
2023/07/12 03:24:45;;;;;;;3.22;2.15;;;;;;;-148.88;100.00;-17125.47;5034269;28;20056;-74
2023/07/12 03:27:10;;;;;;;4.20;2.10;;;;;;;-148.88;100.00;-17125.47;5034229;28;20176;-74
2023/07/12 03:29:36;;;;;;;4.13;2.10;;;;;;;-148.88;100.00;-17125.47;5033906;28;20498;-74
2023/07/12 03:32:02;;;;;;;3.20;2.10;;;;;;;-148.88;100.00;-17125.47;5033730;28;20017;-74
2023/07/12 03:34:29;;;;;;;4.25;2.05;;;;;;;-148.88;100.00;-17125.47;5033684;28;20498;-74
2023/07/12 03:36:55;;;;;;;5.13;2.38;;;;;;;-148.88;100.00;-17125.47;5033732;28;20029;-74
2023/07/12 03:39:20;;;;;;;4.20;2.20;;;;;;;-148.88;100.00;-17125.47;5034088;28;20021;-75
2023/07/12 03:41:45;;;;;;;4.03;2.50;;;;;;;-148.88;100.00;-17125.47;5033701;28;20147;-75
2023/07/12 03:44:11;;;;;;;4.40;2.60;;;;;;;-148.88;100.00;-17125.47;5033652;28;20040;-75
2023/07/12 03:46:36;;;;;;;3.50;2.70;;;;;;;-148.88;100.00;-17125.47;5033538;28;20063;-74
2023/07/12 03:49:01;;;;;;;7.25;2.63;;;;;;;-148.88;100.00;-17125.47;5015733;28;20049;-75
2023/07/12 03:51:27;;;;;;;3.45;2.40;;;;;;;-148.88;100.00;-17125.47;5033941;28;20057;-75
2023/07/12 03:53:52;;;;;;;3.67;2.40;;;;;;;-148.88;100.00;-17125.47;5033271;28;20391;-75
2023/07/12 03:56:18;;;;;;;4.00;2.38;;;;;;;-148.88;100.00;-17125.47;5033641;28;20051;-75
2023/07/12 03:58:43;;;;;;;5.18;2.40;;;;;;;-148.88;100.00;-17125.47;5033414;28;20071;-75
2023/07/12 04:01:11;;;;;;;3.08;2.10;;;;;;;-148.88;100.00;-17125.47;5033327;28;20412;-74
2023/07/12 04:03:38;;;;;;;7.78;2.33;;;;;;;-148.88;100.00;-17125.47;5033985;28;20036;-74
2023/07/12 04:06:05;;;;;;;4.07;2.30;;;;;;;-148.88;100.00;-17125.47;5033339;28;20419;-74
2023/07/12 04:08:31;;;;;;;4.57;2.60;;;;;;;-148.88;100.00;-17125.47;5033547;28;20476;-75
2023/07/12 04:10:57;;;;;;;3.78;2.13;;;;;;;-148.88;100.00;-17125.47;5033247;28;20061;-74
2023/07/12 04:13:25;;;;;;;5.32;2.90;;;;;;;-148.88;100.00;-17125.47;5033370;28;20053;-74
2023/07/12 04:15:53;;;;;;;3.95;2.50;;;;;;;-148.88;100.00;-17125.47;5033057;28;20083;-75
2023/07/12 04:18:18;;;;;;;6.32;2.72;;;;;;;-148.88;100.00;-17125.47;5033177;28;20025;-75
2023/07/12 04:20:44;;;;;;;5.97;3.10;;;;;;;-148.88;100.00;-17125.47;5033063;28;20044;-74
2023/07/12 04:23:09;;;;;;;5.05;2.65;;;;;;;-148.88;100.00;-17125.47;5031916;28;20033;-75
2023/07/12 04:25:35;;;;;;;5.10;2.80;;;;;;;-148.88;100.00;-17125.47;5033554;28;20027;-75
2023/07/12 04:28:00;;;;;;;4.63;2.63;;;;;;;-148.88;100.00;-17125.47;5015231;28;20024;-74
2023/07/12 04:30:26;;;;;;;6.68;2.60;;;;;;;-148.88;100.00;-17125.47;5032971;28;20481;-74
2023/07/12 04:32:52;;;;;;;5.70;2.70;;;;;;;-148.88;100.00;-17125.47;5032744;28;20125;-74
2023/07/12 04:35:18;;;;;;;5.05;2.42;;;;;;;-148.88;100.00;-17125.47;5032928;28;20028;-74
2023/07/12 04:37:52;;;;;;;6.50;3.10;;;;;;;-148.88;100.00;-17125.47;5032930;28;20033;-75
2023/07/12 04:40:17;;;;;;;6.60;2.75;;;;;;;-148.88;100.00;-17125.47;5033120;28;20429;-74
2023/07/12 04:42:43;;;;;;;8.70;2.70;;;;;;;-148.88;100.00;-17125.47;5032767;28;20544;-74
2023/07/12 04:45:10;;;;;;;4.25;2.67;;;;;;;-148.88;100.00;-17125.47;5032769;28;20029;-75
2023/07/12 04:47:36;;;;;;;3.95;1.75;;;;;;;-148.88;100.00;-17125.47;5032739;28;20033;-74
2023/07/12 04:50:03;;;;;;;5.70;2.17;;;;;;;-148.88;100.00;-17125.47;5015307;28;20089;-74
2023/07/12 04:52:29;;;;;;;4.22;2.10;;;;;;;-148.88;100.00;-17125.47;5014982;28;20028;-74
2023/07/12 04:54:57;;;;;;;3.78;1.80;;;;;;;-148.88;100.00;-17125.47;5032749;28;20022;-74
2023/07/12 04:57:23;;;;;;;4.25;2.10;;;;;;;-148.88;100.00;-17125.47;5014882;28;20025;-74
2023/07/12 04:59:48;;;;;;;6.50;2.05;;;;;;;-148.88;100.00;-17125.47;5032923;28;20031;-74
2023/07/12 05:02:13;;;;;;;4.95;1.88;;;;;;;-148.88;100.00;-17125.47;5014792;28;20017;-74
2023/07/12 05:04:39;;;;;;;3.80;2.05;;;;;;;-148.88;100.00;-17125.47;5032843;28;20030;-75
2023/07/12 05:07:09;;;;;;;5.20;2.08;;;;;;;-148.88;100.00;-17125.47;5032709;28;20025;-74
2023/07/12 05:09:35;;;;;;;3.38;1.83;;;;;;;-148.88;100.00;-17125.47;5032492;28;20061;-74
2023/07/12 05:12:00;;;;;;;4.63;2.00;;;;;;;-148.88;100.00;-17125.47;5032479;28;20057;-74
2023/07/12 05:14:28;;;;;;;3.42;1.75;;;;;;;-148.88;100.00;-17125.47;5032564;28;20025;-74
2023/07/12 05:16:53;;;;;;;3.60;1.80;;;;;;;-148.88;100.00;-17125.47;5032774;28;20113;-74
2023/07/12 05:19:18;;;;;;;5.97;1.92;;;;;;;-148.88;100.00;-17125.47;5032509;28;20212;-74
2023/07/12 05:21:44;;;;;;;3.85;1.80;;;;;;;-148.88;100.00;-17125.47;5032426;28;20108;-74
2023/07/12 05:24:09;;;;;;;3.17;1.60;;;;;;;-148.88;100.00;-17125.47;5032230;28;20112;-74
2023/07/12 05:26:35;;;;;;;4.85;1.90;;;;;;;-148.88;100.00;-17125.47;5014723;28;20088;-74
2023/07/12 05:29:00;;;;;;;3.70;1.67;;;;;;;-148.88;100.00;-17125.47;5032636;28;20018;-74
2023/07/12 05:31:26;;;;;;;5.45;1.70;;;;;;;-148.88;100.00;-17125.47;5032661;28;20032;-74
2023/07/12 05:33:52;;;;;;;4.88;1.70;;;;;;;-148.88;100.00;-17125.47;5032364;28;20049;-74
2023/07/12 05:36:17;;;;;;;3.72;1.60;;;;;;;-148.88;100.00;-17125.47;5018363;28;20510;-74
2023/07/12 05:38:43;;;;;;;3.30;1.40;;;;;;;-148.88;100.00;-17125.47;5036040;28;20028;-74
2023/07/12 05:41:08;;;;;;;4.80;1.40;;;;;;;-148.88;100.00;-17125.47;5036175;28;20415;-74
2023/07/12 05:43:34;;;;;;;4.30;1.60;;;;;;;-148.88;100.00;-17125.47;5035978;28;20498;-74
2023/07/12 05:46:06;;;;;;;3.13;1.50;;;;;;;-148.88;100.00;-17125.47;5035792;28;20025;-74
2023/07/12 05:48:31;;;;;;;2.15;1.30;;;;;;;-148.88;100.00;-17125.47;5036225;28;20061;-74
2023/07/12 05:50:59;;;;;;;2.22;1.20;;;;;;;-148.88;100.00;-17125.47;5036182;28;20062;-74
2023/07/12 05:53:24;;;;;;;3.60;1.35;;;;;;;-148.88;100.00;-17125.47;5019321;28;20017;-74
2023/07/12 05:55:57;;;;;;;3.05;1.50;;;;;;;-148.88;100.00;-17125.47;5035760;28;20480;-74
2023/07/12 05:58:24;;;;;;;5.93;1.30;;;;;;;-148.88;100.00;-17125.47;5018061;28;20029;-74
2023/07/12 06:00:55;;;;;;;4.05;1.27;;;;;;;-148.88;100.00;-17125.47;5035671;28;20022;-74
2023/07/12 06:03:20;;;;;;;4.25;1.42;;;;;;;-148.88;100.00;-17125.47;5035591;28;20104;-74
2023/07/12 06:05:46;;;;;;;3.63;1.27;;;;;;;-148.88;100.00;-17125.47;5035466;28;20112;-74
2023/07/12 06:08:11;;;;;;;4.35;1.65;;;;;;;-148.88;100.00;-17125.47;5035429;28;20069;-74
2023/07/12 06:10:37;;;;;;;3.50;1.50;;;;;;;-148.88;100.00;-17125.47;5017756;28;20461;-74
2023/07/12 06:13:02;;;;;;;5.07;1.60;;;;;;;-148.88;100.00;-17125.47;5035628;28;20022;-74
2023/07/12 06:15:27;;;;;;;4.72;1.60;;;;;;;-148.88;100.00;-17125.47;5035616;28;20026;-74
2023/07/12 06:17:53;;;;;;;4.22;1.70;;;;;;;-148.88;100.00;-17125.47;5035323;28;20025;-74
2023/07/12 06:20:19;;;;;;;4.88;1.52;;;;;;;-148.88;100.00;-17125.47;5035579;28;20026;-75
2023/07/12 06:22:44;;;;;;;3.35;1.48;;;;;;;-148.88;100.00;-17125.47;5035110;28;20064;-75
2023/07/12 06:25:10;;;;;;;3.33;1.23;;;;;;;-148.88;100.00;-17125.47;5035771;28;20060;-80
2023/07/12 06:27:35;;;;;;;4.95;1.77;;;;;;;-148.88;100.00;-17125.47;5035176;28;20404;-73
2023/07/12 06:30:02;;;;;;;3.47;1.38;;;;;;;-148.88;100.00;-17125.47;5035701;28;20035;-73
2023/07/12 06:32:27;;;;;;;3.95;1.50;;;;;;;-148.88;100.00;-17125.47;5017329;28;20053;-73
2023/07/12 06:34:52;;;;;;;3.28;1.48;;;;;;;-148.88;100.00;-17125.47;5035138;28;20048;-73
2023/07/12 06:37:18;;;;;;;3.70;1.48;;;;;;;-148.88;100.00;-17125.47;5034986;28;20479;-73
2023/07/12 06:39:43;;;;;;;3.75;1.50;;;;;;;-148.88;100.00;-17125.47;5017897;28;20486;-73
2023/07/12 06:42:08;;;;;;;3.53;1.35;;;;;;;-148.88;100.00;-17125.47;5035351;28;20049;-74
2023/07/12 06:44:34;;;;;;;3.63;1.50;;;;;;;-148.88;100.00;-17125.47;5034693;28;20100;-73
2023/07/12 06:46:59;;;;;;;4.38;1.30;;;;;;;-148.88;100.00;-17125.47;5034078;28;20088;-73
2023/07/12 06:49:25;;;;;;;5.10;1.20;;;;;;;-148.88;100.00;-17125.47;5035035;28;20025;-73
2023/07/12 06:51:50;;;;;;;5.03;1.40;;;;;;;-148.88;100.00;-17125.47;5034633;28;20079;-73
2023/07/12 06:54:17;;;;;;;2.75;1.40;;;;;;;-148.88;100.00;-17125.47;5034529;28;20045;-73
2023/07/12 06:56:43;;;;;;;3.50;1.55;;;;;;;-148.88;100.00;-17125.47;5034632;28;20041;-73
2023/07/12 06:59:09;;;;;;;5.32;1.45;;;;;;;-148.88;100.00;-17125.47;5034481;28;20396;-73
2023/07/12 07:01:34;;;;;;;3.63;1.60;;;;;;;-148.88;100.00;-17125.47;5034435;28;20021;-73
2023/07/12 07:04:00;;;;;;;4.15;1.65;;;;;;;-148.88;100.00;-17125.47;5034314;28;20025;-73
2023/07/12 07:06:27;;;;;;;5.55;1.60;;;;;;;-148.88;100.00;-17125.47;5034426;28;20072;-73
2023/07/12 07:08:53;;;;;;;5.10;1.70;;;;;;;-148.88;100.00;-17125.47;5034505;28;20108;-72
2023/07/12 07:11:18;;;;;;;3.20;1.80;;;;;;;-148.88;100.00;-17125.47;5034324;28;20449;-73
2023/07/12 07:13:43;;;;;;;3.80;1.80;;;;;;;-148.88;100.00;-17125.47;5034227;28;20053;-72
2023/07/12 07:16:10;;;;;;;3.90;1.95;;;;;;;-148.88;100.00;-17125.47;5034222;28;20029;-73
2023/07/12 07:18:36;;;;;;;4.10;2.00;;;;;;;-148.88;100.00;-17125.47;5016412;28;20025;-73
2023/07/12 07:21:03;;;;;;;4.32;2.65;;;;;;;-148.88;100.00;-17125.47;5034392;28;20038;-72
2023/07/12 07:23:28;;;;;;;3.33;2.40;;;;;;;-148.88;100.00;-17125.47;5015973;28;20030;-72
2023/07/12 07:25:53;;;;;;;4.63;2.60;;;;;;;-148.88;100.00;-17125.47;5033919;28;20387;-72
2023/07/12 07:28:20;;;;;;;4.65;2.22;;;;;;;-148.88;100.00;-17125.47;5016251;28;20047;-73
2023/07/12 07:30:54;;;;;;;5.70;2.38;;;;;;;-148.88;100.00;-17125.47;5033892;28;20399;-73
2023/07/12 07:33:19;;;;;;;3.40;1.90;;;;;;;-148.88;100.00;-17125.47;5034217;28;20028;-73
2023/07/12 07:35:45;;;;;;;5.20;2.40;;;;;;;-148.88;100.00;-17125.47;5033959;28;20017;-72
2023/07/12 07:38:10;;;;;;;3.28;2.15;;;;;;;-148.88;100.00;-17125.47;5034055;28;20392;-72
2023/07/12 07:40:40;;;;;;;3.85;2.45;;;;;;;-148.88;100.00;-17125.47;5034058;28;20049;-73
2023/07/12 07:43:06;;;;;;;3.72;2.53;;;;;;;-148.88;100.00;-17125.47;5034027;28;20025;-73
2023/07/12 07:45:31;;;;;;;4.15;2.90;;;;;;;-148.88;100.00;-17125.47;5015783;28;20029;-72
2023/07/12 07:51:19;;;;;;;5.13;3.40;;;;;;;-148.88;100.00;-17125.47;5033837;28;20040;-72
2023/07/12 07:53:47;;;;;;;4.50;3.08;;;;;;;-148.88;100.00;-17125.47;5033366;28;20021;-72
2023/07/12 07:56:12;;;;;;;6.50;3.38;;;;;;;-148.88;100.00;-17125.47;5033490;28;20476;-73
2023/07/12 07:58:38;;;;;;;5.03;3.35;;;;;;;-148.88;100.00;-17125.47;5033293;28;20059;-73
2023/07/12 08:01:03;;;;;;;5.07;3.58;;;;;;;-148.88;100.00;-17125.47;5015817;28;20599;-73
2023/07/12 08:03:31;;;;;;;5.60;3.25;;;;;;;-148.88;100.00;-17125.47;5015652;28;20128;-72
2023/07/12 08:06:01;;;;;;;6.22;3.92;;;;;;;-148.88;100.00;-17125.47;5033458;28;20044;-73
2023/07/12 08:08:27;;;;;;;5.32;3.42;;;;;;;-148.88;100.00;-17125.47;5033235;28;20159;-73
2023/07/12 08:10:54;;;;;;;5.53;3.88;;;;;;;-148.88;100.00;-17125.47;5015792;28;20033;-72
2023/07/12 08:13:19;;;;;;;3.78;2.90;;;;;;;-148.88;100.00;-17125.47;5033174;28;20391;-73
2023/07/12 08:15:45;;;;;;;6.20;3.85;;;;;;;-148.88;100.00;-17125.47;5033240;28;20067;-72
2023/07/12 08:18:11;;;;;;;5.07;3.40;;;;;;;-148.88;100.00;-17125.47;5033087;28;20066;-73
2023/07/12 08:20:36;;;;;;;4.60;3.30;;;;;;;-148.88;100.00;-17125.47;5033440;28;20131;-73
2023/07/12 08:23:02;;;;;;;6.68;3.22;;;;;;;-148.88;100.00;-17125.47;5032842;28;20068;-73
2023/07/12 08:25:28;;;;;;;5.13;2.63;;;;;;;-148.88;99.30;-17125.47;5033487;28;20022;-72
2023/07/12 08:27:53;;;;;;;5.80;2.70;;;;;;;-148.88;100.00;-17125.47;5033279;28;20040;-73
2023/07/12 08:30:21;;;;;;;5.95;3.00;;;;;;;-148.88;99.52;-17125.47;5033045;28;20029;-73
2023/07/12 08:32:46;;;;;;;4.32;2.38;;;;;;;-148.88;96.76;-17125.47;5032885;28;20083;-73
2023/07/12 08:35:11;;;;;;;5.63;2.40;;;;;;;-148.88;95.60;-17125.47;5032876;28;20108;-72
2023/07/12 08:37:37;;;;;;;6.40;2.28;;;;;;;-148.88;95.37;-17125.47;5015135;28;20056;-73
2023/07/12 08:40:03;;;;;;;3.88;2.35;;;;;;;-148.88;96.35;-17125.47;5032880;28;20021;-72
2023/07/12 08:42:38;;;;;;;3.72;2.20;;;;;;;-148.88;95.14;-17125.47;5032767;28;20022;-72
2023/07/12 08:45:14;;;;;;;2.90;2.10;;;;;;;-148.88;94.84;-17125.47;5033135;28;20430;-72
2023/07/12 08:47:40;;;;;;;4.28;2.28;;;;;;;-148.88;95.53;-17125.47;5015256;28;20481;-72
2023/07/12 08:50:16;;;;;;;5.07;2.50;;;;;;;-148.88;94.57;-17125.47;5032772;28;20025;-72
2023/07/12 08:52:44;;;;;;;5.25;2.50;;;;;;;-148.88;94.31;-17125.47;5032774;28;20026;-72
2023/07/12 08:55:21;;;;;;;5.68;2.45;;;;;;;-148.88;94.54;-17125.47;5032793;28;20029;-72
2023/07/12 08:58:18;;;;;;;4.30;2.42;;;;;;;-148.88;90.56;-17125.47;5032803;28;20030;-72
2023/07/12 09:00:46;;;;;;;4.45;1.90;;;;;;;-148.88;88.63;-17125.47;5032910;28;20033;-72
2023/07/12 09:03:11;;;;;;;4.20;2.10;;;;;;;-148.88;90.16;-17125.47;5032554;28;20030;-72
2023/07/12 09:05:37;;;;;;;3.10;1.90;;;;;;;-148.88;89.58;-17125.47;5032822;28;20473;-72
2023/07/12 09:08:47;;;;;;;6.40;2.33;;;;;;;-148.88;89.65;-17125.47;5032882;28;20063;-72
2023/07/12 09:11:19;;;;;;;5.22;2.20;;;;;;;-148.88;89.27;-17125.47;5023687;28;20182;-72
2023/07/12 09:13:46;;;;;;;6.05;2.35;;;;;;;-148.88;90.86;-17125.47;5036532;28;20026;-72
2023/07/12 09:16:23;;;;;;;5.05;2.42;;;;;;;-148.88;89.41;-17125.47;5036464;28;20020;-72
2023/07/12 09:18:52;;;;;;;3.55;1.77;;;;;;;-148.88;87.14;-17125.47;5036751;28;20072;-72
2023/07/12 09:21:28;;;;;;;5.15;2.25;;;;;;;-148.88;89.34;-17125.47;5036366;28;20079;-73
2023/07/12 09:23:59;;;;;;;6.15;2.22;;;;;;;-148.88;85.35;-17125.47;5036058;28;20056;-72
2023/07/12 09:26:27;;;;;;;6.07;2.08;;;;;;;-148.88;81.94;-17125.47;5036680;28;20034;-74
2023/07/12 09:28:57;;;;;;;6.18;2.15;;;;;;;-148.88;83.37;-17125.47;5036570;28;20030;-74
2023/07/12 09:31:28;;;;;;;7.13;2.03;;;;;;;-148.88;81.98;-17125.47;5036242;28;20030;-73
2023/07/12 09:33:58;;;;;;;6.13;2.22;;;;;;;-148.88;81.64;-17125.47;5036704;28;20118;-74
2023/07/12 09:36:24;;;;;;;3.33;2.03;;;;;;;-148.88;83.94;-17125.47;5036156;28;20429;-74
2023/07/12 09:38:49;;;;;;;4.93;2.15;;;;;;;-148.88;82.94;-17125.47;5018344;28;20029;-74
2023/07/12 09:41:20;;;;;;;5.47;2.30;;;;;;;-148.88;84.04;-17125.47;5035929;28;20031;-73
2023/07/12 09:43:53;;;;;;;4.53;2.10;;;;;;;-148.88;81.66;-17125.47;5036070;28;20496;-73
2023/07/12 09:46:26;;;;;;;7.85;2.35;;;;;;;-148.88;80.39;-17125.47;5036444;28;20061;-73
2023/07/12 09:49:18;;;;;;;5.28;2.45;;;;;;;-148.88;81.10;-17125.47;5036152;28;20511;-74
2023/07/12 09:51:52;;;;;;;8.85;2.60;;;;;;;-148.88;81.68;-17125.47;5018230;28;20032;-73
2023/07/12 09:54:35;;;;;;;4.78;2.38;;;;;;;-148.88;80.52;-17125.47;5035824;28;20021;-73
2023/07/12 09:57:11;;;;;;;5.63;2.92;;;;;;;-148.88;80.65;-17125.47;5035858;28;20036;-73
2023/07/12 09:59:58;;;;;;;9.13;2.83;;;;;;;-148.88;81.71;-17125.47;5036156;28;20107;-73
2023/07/12 10:02:38;;;;;;;6.28;2.97;;;;;;;-148.88;81.37;-17125.47;5036038;28;20021;-73
2023/07/12 10:05:10;;;;;;;5.82;2.53;;;;;;;-148.88;80.98;-17125.47;5035607;28;20017;-73
2023/07/12 10:07:55;;;;;;;5.15;2.50;;;;;;;-148.88;79.78;-17125.47;5036211;28;20021;-73
2023/07/12 10:10:27;;;;;;;7.07;2.47;;;;;;;-148.88;76.32;-17125.47;5035494;28;20507;-73
2023/07/12 10:13:15;;;;;;;6.13;2.40;;;;;;;-148.88;77.74;-17125.47;5035236;28;20033;-73
2023/07/12 10:15:41;;;;;;;5.57;2.60;;;;;;;-148.88;78.92;-17125.47;5025854;28;20037;-73
2023/07/12 10:18:15;;;;;;;4.88;2.30;;;;;;;-148.88;74.74;-17125.47;5017671;28;20026;-73
2023/07/12 10:20:41;;;;;;;7.40;2.72;;;;;;;-148.88;73.35;-17125.47;5035525;28;20025;-73
2023/07/12 10:23:10;;;;;;;4.97;2.47;;;;;;;-148.88;75.44;-17125.47;5034906;28;20056;-73
2023/07/12 10:25:37;;;;;;;7.47;2.58;;;;;;;-148.88;69.38;-17125.47;5035120;28;20022;-74
2023/07/12 10:28:17;;;;;;;6.88;2.17;;;;;;;-148.88;69.36;-17125.47;5017351;28;20040;-73
2023/07/12 10:30:46;;;;;;;8.88;2.50;;;;;;;-148.88;66.66;-17125.47;5035631;28;20018;-73
2023/07/12 10:33:29;;;;;;;6.63;2.25;;;;;;;-148.88;64.76;-17125.47;5017153;28;20031;-73
2023/07/12 10:36:04;;;;;;;5.90;2.30;;;;;;;-148.88;68.03;-17125.47;5035290;28;20021;-74
2023/07/12 10:38:31;;;;;;;6.03;2.22;;;;;;;-148.88;69.64;-17125.47;5035462;28;20041;-73
2023/07/12 10:41:10;;;;;;;6.93;2.33;;;;;;;-148.88;71.61;-17125.47;5034935;28;20029;-74
2023/07/12 10:43:41;;;;;;;6.93;2.55;;;;;;;-148.88;72.14;-17125.47;5035352;28;20030;-73
2023/07/12 10:46:13;;;;;;;6.18;1.90;;;;;;;-148.88;71.15;-17125.47;5035196;28;20056;-73
2023/07/12 10:48:45;;;;;;;8.02;2.30;;;;;;;-148.88;67.31;-17125.47;5035039;28;20033;-73
2023/07/12 10:51:33;;;;;;;6.28;2.42;;;;;;;-148.88;64.93;-17125.47;5034847;28;20044;-73
2023/07/12 10:53:59;;;;;;;5.10;1.95;;;;;;;-148.88;65.43;-17125.47;5034570;28;20021;-73
2023/07/12 10:56:32;;;;;;;6.07;2.35;;;;;;;-148.88;66.41;-17125.47;5034582;28;20025;-74
2023/07/12 10:59:32;;;;;;;5.43;2.40;;;;;;;-148.88;67.65;-17125.47;5016838;28;20116;-73
2023/07/12 11:02:03;;;;;;;4.93;2.20;;;;;;;-148.88;69.58;-17125.47;5016526;28;20061;-73
2023/07/12 11:04:35;;;;;;;5.68;2.50;;;;;;;-148.88;68.63;-17125.47;5016573;28;20048;-73
2023/07/12 11:07:14;;;;;;;7.20;2.58;;;;;;;-148.88;68.86;-17125.47;5034699;28;20052;-73
2023/07/12 11:09:43;;;;;;;5.82;2.40;;;;;;;-148.88;69.76;-17125.47;5016735;28;20618;-73
2023/07/12 11:12:09;;;;;;;4.28;1.73;;;;;;;-148.88;64.05;-17125.47;5016752;28;20029;-73